Dallas, Texas
Current Conditions -  °F | °C
As of 6:53 PM on Saturday 25 Oct 2014 (Local Time) from KDAL Reporting Station
Clear Clear  
Wind Chill: 28°   Ceiling: Unl
Heat Index: 28°   Visibility: 10mi
Dew Point: 15°   Wind: 6mph
Humidity: 44%   Direction: 190°S
Pressure: 30.04"   Gusts: NA
Location:  32.78°N, 96.79°W
Report Text: KDAL 252353Z 19005KT 10SM CLR 28/15 A3004 RMK AO2 SLP167 T02830150 10311 20278 56007
Loading
Personal Weather Stations






























Interactive Weather Map
Tropical Storm Tracking
New forecast layout! Learn more

10-Day Weather Forecast

Advertisements
Track Severe Weather on mobile